Monday, June 18, 2018, 8:44 PM EDT
Back to Local

KPNE, N.e. Philadelphia Airport

Location: Philadelphia, PA, United States Lat: 40.083
Local Time: 8:44 PM EDT ( 0:44 GMT) Lon: -75.017
Time Zone: US/Eastern Elev: 121 ft

Show me the last for .
Show Decoded

2018-06-18 19:54 METAR KPNE 182354Z 21009KT 10SM CLR 32/21 A2983 RMK AO2 LTG DSNT NW SLP101
                 T03170211 10344 20317 56019 =
2018-06-18 18:54 METAR KPNE 182254Z 21012G16KT 10SM CLR 33/22 A2984 RMK AO2 SLP103 T03280217 =
2018-06-18 17:54 METAR KPNE 182154Z 24012G18KT 10SM CLR 33/22 A2986 RMK AO2 SLP111 T03330217 =
2018-06-18 16:54 METAR KPNE 182054Z 23011G18KT 10SM CLR 33/21 A2989 RMK AO2 SLP120 T03330211
                 56024 =
2018-06-18 15:54 METAR KPNE 181954Z 21006G16KT 10SM CLR 33/21 A2991 RMK AO2 SLP127 T03330211 =
2018-06-18 14:54 METAR KPNE 181854Z VRB05G14KT 10SM BKN049 33/21 A2994 RMK AO2 SLP137 T03330211 =
2018-06-18 13:54 METAR KPNE 181754Z VRB06KT 10SM FEW049 33/22 A2996 RMK AO2 SLP144 T03330217
                 10339 20250 58019 =
2018-06-18 12:54 METAR KPNE 181654Z 22008KT 10SM SCT044 32/21 A2999 RMK AO2 SLP153 T03220211 =
2018-06-18 11:54 METAR KPNE 181554Z 23008KT 10SM FEW041 32/22 A3000 RMK AO2 SLP158 T03220217 =
2018-06-18 10:54 METAR KPNE 181454Z 23006KT 10SM CLR 32/22 A3002 RMK AO2 SLP164 T03170217 58013 =
2018-06-18 09:54 METAR KPNE 181354Z 23006KT 10SM CLR 29/22 A3003 RMK AO2 SLP168 T02940217 =
2018-06-18 08:54 METAR KPNE 181254Z 23007KT 10SM CLR 28/21 A3005 RMK AO2 SLP174 T02780206 =
2018-06-18 07:54 METAR KPNE 181154Z 21005KT 10SM CLR 25/21 A3006 RMK AO2 SLP177 T02500206 10250
                 20217 58006 =
2018-06-18 06:54 METAR KPNE 181054Z 00000KT 8SM CLR 23/20 A3007 RMK AO2 SLP181 T02330200 =
2018-06-18 05:54 METAR KPNE 180954Z 00000KT 6SM BR CLR 22/20 A3008 RMK AO2 SLP184 T02220200 =
2018-06-18 04:54 METAR KPNE 180854Z AUTO 00000KT 9SM CLR 22/19 A3008 RMK AO2 SLP183 T02220194
                 55002 =
2018-06-18 03:54 METAR KPNE 180754Z AUTO 00000KT 10SM CLR 23/19 A3007 RMK AO2 SLP182 T02280194 =
2018-06-18 02:54 METAR KPNE 180654Z AUTO 00000KT 10SM CLR 23/19 A3008 RMK AO2 SLP185 T02280189 =
2018-06-18 01:54 METAR KPNE 180554Z AUTO 00000KT 10SM CLR 23/18 A3008 RMK AO2 SLP185 T02330183
                 10294 20233 58002 =
2018-06-18 00:54 METAR KPNE 180454Z AUTO VRB04KT 10SM CLR 24/18 A3008 RMK AO2 SLP186 T02390178
                 403330172 =
2018-06-17 23:54 METAR KPNE 180354Z AUTO 20005KT 10SM CLR 25/17 A3009 RMK AO2 SLP187 T02500172 =
2018-06-17 22:54 METAR KPNE 180254Z AUTO 21004KT 10SM CLR 26/17 A3009 RMK AO2 SLP187 T02560167
                 51010 =
2018-06-17 21:54 METAR KPNE 180154Z 21006KT 10SM CLR 27/16 A3008 RMK AO2 SLP186 T02720161 =
2018-06-17 20:54 METAR KPNE 180054Z 16009KT 10SM CLR 28/16 A3007 RMK AO2 SLP180 T02830156 =

Support USWX by starting your Amazon purchase here.